CheckWX is a tool to help pilots better visualize weather data.  It is not intended as a substitute for an official pre-flight weather briefing.

03:15:42 UTC

KAWG METAR
Washington Municipal Airport
Washington, Iowa, USA
Current

21 mins ago

KAWG 230255Z AUTO 33008G13KT 10SM FEW022 SCT027 BKN055 17/16 A2993 RMK AO2
Observed
Sep-23 @ 02:55 UTC
Wind
  • 330° at 8 KTS
  • Gusting to 13 KTS
Visibility
10 SM
Flight Rules
VFR
Cloud Levels
  • Few at 2,200' AGL
  • Scattered at 2,700' AGL
  • Broken at 5,500' AGL
Temperature
17°C / 63°F
Dewpoint
16°C / 61°F
Humidity
94%
Altimeter
29.93" Hg
Pressure
1013.52 hPa
Previous

41 mins ago

KAWG 230235Z AUTO 33010KT 10SM SCT020 OVC055 17/16 A2992 RMK AO2
Observed
Sep-23 @ 02:35 UTC
Wind
  • 330° at 10 KTS
Visibility
10 SM
Flight Rules
VFR
Cloud Levels
  • Scattered at 2,000' AGL
  • Overcast at 5,500' AGL
Temperature
17°C / 63°F
Dewpoint
16°C / 61°F
Humidity
94%
Altimeter
29.92" Hg
Pressure
1013.22 hPa
Previous

1 hour ago

KAWG 230215Z AUTO 33012KT 10SM OVC019 17/16 A2992 RMK AO2
Observed
Sep-23 @ 02:15 UTC
Wind
  • 330° at 12 KTS
Visibility
10 SM
Flight Rules
MVFR
Cloud Levels
  • Overcast at 1,900' AGL
Temperature
17°C / 63°F
Dewpoint
16°C / 61°F
Humidity
94%
Altimeter
29.92" Hg
Pressure
1013.22 hPa